Time;durP1;ratioP1;P1;durP2;ratioP2;P2;SDS_P1;SDS_P2;PMS_P1;PMS_P2;Temp;Humidity;BMP_temperature;BMP_pressure;BME280_temperature;BME280_humidity;BME280_pressure;Samples;Min_cycle;Max_cycle;Signal;HPM_P1;HPM_P2
2021/05/17 00:01:55;;;;;;;1.43;0.90;;;10.50;99.90;;;;;;4883147;29;20215;-65
2021/05/17 00:04:34;;;;;;;1.10;1.00;;;10.40;99.90;;;;;;4885656;29;20822;-63
2021/05/17 00:07:03;;;;;;;2.10;1.10;;;10.40;99.90;;;;;;4882259;29;20797;-64
2021/05/17 00:09:29;;;;;;;1.00;0.80;;;10.40;99.90;;;;;;4885591;29;20431;-64
2021/05/17 00:11:55;;;;;;;1.63;1.10;;;10.40;99.90;;;;;;4885318;29;20514;-64
2021/05/17 00:14:22;;;;;;;3.40;2.10;;;10.30;99.90;;;;;;4884369;29;20424;-65
2021/05/17 00:16:48;;;;;;;1.13;0.90;;;10.30;99.90;;;;;;4888523;29;20431;-62
2021/05/17 00:19:14;;;;;;;0.60;0.60;;;10.20;99.90;;;;;;4892944;29;20533;-64
2021/05/17 00:21:40;;;;;;;1.37;1.27;;;10.20;99.90;;;;;;4889995;29;20182;-63
2021/05/17 00:24:07;;;;;;;1.00;0.70;;;10.20;99.90;;;;;;4888797;29;20222;-64
2021/05/17 00:26:33;;;;;;;1.60;1.07;;;10.20;99.90;;;;;;4891958;29;20861;-64
2021/05/17 00:28:59;;;;;;;1.33;1.23;;;10.20;99.90;;;;;;4894126;29;20461;-64
2021/05/17 00:31:25;;;;;;;1.50;1.40;;;10.20;99.90;;;;;;4879767;29;20507;-64
2021/05/17 00:33:50;;;;;;;1.43;1.33;;;10.20;99.90;;;;;;4891593;29;20439;-64
2021/05/17 00:36:17;;;;;;;0.93;0.87;;;10.20;99.90;;;;;;4891017;29;20176;-64
2021/05/17 00:38:42;;;;;;;2.80;1.00;;;10.10;99.90;;;;;;4918667;23;20222;-65
2021/05/17 00:41:09;;;;;;;1.43;1.00;;;10.10;99.90;;;;;;4897434;29;20451;-65
2021/05/17 00:43:37;;;;;;;2.37;1.33;;;10.10;99.90;;;;;;4897980;29;20290;-66
2021/05/17 00:46:05;;;;;;;1.03;0.90;;;10.10;99.90;;;;;;4897228;29;20451;-66
2021/05/17 00:48:31;;;;;;;0.80;0.80;;;10.10;99.90;;;;;;4897530;29;20455;-65
2021/05/17 00:50:57;;;;;;;0.80;0.80;;;10.00;99.90;;;;;;4896721;29;20490;-65
2021/05/17 00:53:22;;;;;;;1.00;0.90;;;10.00;99.90;;;;;;4897187;29;21050;-66
2021/05/17 00:55:49;;;;;;;0.77;0.77;;;9.90;99.90;;;;;;4897294;29;20175;-64
2021/05/17 00:58:14;;;;;;;1.90;0.80;;;10.00;99.90;;;;;;4897320;29;20198;-65
2021/05/17 01:00:42;;;;;;;1.27;0.83;;;10.00;99.90;;;;;;4896544;29;20921;-65
2021/05/17 01:03:09;;;;;;;1.37;0.70;;;9.90;99.90;;;;;;4895954;29;20214;-66
2021/05/17 01:05:35;;;;;;;0.90;0.90;;;10.00;99.90;;;;;;4897444;29;20482;-65
2021/05/17 01:08:02;;;;;;;2.00;0.90;;;10.00;99.90;;;;;;4897159;29;20447;-65
2021/05/17 01:10:30;;;;;;;1.13;1.00;;;10.00;99.90;;;;;;4896921;29;20439;-66
2021/05/17 01:12:56;;;;;;;2.13;1.20;;;10.00;99.90;;;;;;4897372;29;20996;-66
2021/05/17 01:15:22;;;;;;;0.80;0.80;;;9.90;99.90;;;;;;4897137;29;20522;-66
2021/05/17 01:17:48;;;;;;;0.90;0.90;;;10.00;99.90;;;;;;4896174;29;20541;-65
2021/05/17 01:20:22;;;;;;;4.30;1.07;;;10.00;99.90;;;;;;4895680;29;20186;-66
2021/05/17 01:23:01;;;;;;;1.50;1.00;;;10.00;99.90;;;;;;4893754;29;20466;-66
2021/05/17 01:25:28;;;;;;;1.07;1.00;;;10.00;99.90;;;;;;4896913;29;20426;-65
2021/05/17 01:27:55;;;;;;;1.20;1.10;;;10.00;99.90;;;;;;4896609;29;20572;-66
2021/05/17 01:30:22;;;;;;;2.63;1.20;;;10.00;99.90;;;;;;4896462;29;20446;-66
2021/05/17 01:32:51;;;;;;;2.50;1.10;;;10.00;99.90;;;;;;4896332;29;20447;-64
2021/05/17 01:35:18;;;;;;;0.80;0.70;;;10.10;99.90;;;;;;4896039;29;20439;-65
2021/05/17 01:37:45;;;;;;;2.53;0.97;;;10.10;99.90;;;;;;4896746;29;20470;-66
2021/05/17 01:40:11;;;;;;;1.83;1.00;;;10.10;99.90;;;;;;4895801;29;20450;-66
2021/05/17 01:42:41;;;;;;;1.00;0.90;;;10.10;99.90;;;;;;4896431;29;21084;-66
2021/05/17 01:45:09;;;;;;;1.23;1.03;;;10.10;99.90;;;;;;4896618;29;20797;-66
2021/05/17 01:47:40;;;;;;;2.50;2.30;;;10.10;99.90;;;;;;4895432;29;20830;-65
2021/05/17 01:50:11;;;;;;;0.70;0.63;;;10.00;99.90;;;;;;4895596;29;20564;-66
2021/05/17 01:52:38;;;;;;;1.40;1.20;;;10.00;99.90;;;;;;4894193;29;20435;-65
2021/05/17 01:55:10;;;;;;;1.07;0.97;;;9.90;99.90;;;;;;4896415;29;20929;-65
2021/05/17 01:57:36;;;;;;;1.30;1.10;;;9.90;99.90;;;;;;4895680;29;20469;-66
2021/05/17 02:00:05;;;;;;;1.83;1.20;;;9.90;99.90;;;;;;4895348;29;20464;-65
2021/05/17 02:02:31;;;;;;;0.70;0.70;;;9.90;99.90;;;;;;4895934;29;20984;-66
2021/05/17 02:04:57;;;;;;;1.53;0.80;;;9.90;99.90;;;;;;4895359;29;20490;-63
2021/05/17 02:07:23;;;;;;;1.80;0.80;;;9.90;99.90;;;;;;4894655;29;20642;-66
2021/05/17 02:09:53;;;;;;;1.43;0.90;;;9.90;99.90;;;;;;4895237;29;20209;-65
2021/05/17 02:12:23;;;;;;;1.30;1.00;;;9.90;99.90;;;;;;4895665;29;20571;-65
2021/05/17 02:14:53;;;;;;;1.33;0.80;;;9.90;99.90;;;;;;4895983;29;20443;-65
2021/05/17 02:17:23;;;;;;;1.00;0.87;;;9.80;99.90;;;;;;4896166;29;20447;-66
2021/05/17 02:19:49;;;;;;;2.17;0.93;;;9.80;99.90;;;;;;4894988;29;21003;-65
2021/05/17 02:22:20;;;;;;;0.70;0.70;;;9.80;99.90;;;;;;4896176;29;20443;-65
2021/05/17 02:24:47;;;;;;;0.83;0.83;;;9.70;99.90;;;;;;4888379;29;20816;-65
2021/05/17 02:27:14;;;;;;;2.03;1.00;;;9.70;99.90;;;;;;4880372;29;20904;-66
2021/05/17 02:29:40;;;;;;;0.70;0.70;;;9.70;99.90;;;;;;4885319;29;20965;-65
2021/05/17 02:32:06;;;;;;;0.73;0.67;;;9.60;99.90;;;;;;4885011;29;20471;-64
2021/05/17 02:34:32;;;;;;;2.57;1.33;;;9.60;99.90;;;;;;4885010;29;20439;-65
2021/05/17 02:36:58;;;;;;;1.00;0.77;;;9.60;99.90;;;;;;4891887;29;20441;-65
2021/05/17 02:39:23;;;;;;;1.27;0.80;;;9.60;99.90;;;;;;4881703;29;20219;-66
2021/05/17 02:41:54;;;;;;;1.03;0.87;;;9.60;99.90;;;;;;4891150;29;20199;-65
2021/05/17 02:44:19;;;;;;;5.93;1.47;;;9.60;99.90;;;;;;4889708;29;20286;-66
2021/05/17 02:46:45;;;;;;;0.70;0.70;;;9.60;99.90;;;;;;4886585;29;20941;-65
2021/05/17 02:49:11;;;;;;;2.13;1.10;;;9.60;99.90;;;;;;4887236;29;20207;-64
2021/05/17 02:51:38;;;;;;;3.43;0.83;;;9.60;99.90;;;;;;4882536;29;20186;-65
2021/05/17 02:54:24;;;;;;;1.17;1.07;;;9.60;99.90;;;;;;4887017;29;20265;-65
2021/05/17 02:57:03;;;;;;;1.33;0.80;;;9.60;99.90;;;;;;4890374;29;20446;-66
2021/05/17 02:59:59;;;;;;;0.80;0.80;;;9.60;99.90;;;;;;4889502;29;20826;-64
2021/05/17 03:02:30;;;;;;;1.67;1.33;;;9.70;99.90;;;;;;4873766;29;20471;-65
2021/05/17 03:04:58;;;;;;;5.30;0.80;;;9.70;99.90;;;;;;4895922;29;20443;-65
2021/05/17 03:07:27;;;;;;;0.90;0.73;;;9.80;99.90;;;;;;4895381;29;20463;-66
2021/05/17 03:09:54;;;;;;;0.97;0.87;;;9.80;99.90;;;;;;4894225;29;20523;-65
2021/05/17 03:12:22;;;;;;;7.00;0.90;;;9.80;99.90;;;;;;4894874;29;20447;-65
2021/05/17 03:14:50;;;;;;;0.83;0.70;;;9.80;99.90;;;;;;4895068;29;20471;-65
2021/05/17 03:17:17;;;;;;;1.43;1.10;;;9.80;99.90;;;;;;4893353;29;20443;-66
2021/05/17 03:19:43;;;;;;;0.80;0.80;;;9.70;99.90;;;;;;4894939;29;20928;-65
2021/05/17 03:22:09;;;;;;;2.10;0.80;;;9.60;99.90;;;;;;4893821;29;20447;-65
2021/05/17 03:24:37;;;;;;;3.47;1.07;;;9.60;99.90;;;;;;4894866;29;20450;-65
2021/05/17 03:27:24;;;;;;;1.30;1.10;;;9.50;99.90;;;;;;4894529;29;20211;-65
2021/05/17 03:29:51;;;;;;;1.70;0.77;;;9.50;99.90;;;;;;4880052;29;20757;-65
2021/05/17 03:32:17;;;;;;;2.50;1.20;;;9.40;99.90;;;;;;4895129;29;20440;-64
2021/05/17 03:34:42;;;;;;;1.80;1.00;;;9.30;99.90;;;;;;4894830;29;20443;-65
2021/05/17 03:37:09;;;;;;;1.50;0.87;;;9.30;99.90;;;;;;4894672;29;20672;-65
2021/05/17 03:39:35;;;;;;;2.43;0.97;;;9.20;99.90;;;;;;4893111;29;20314;-66
2021/05/17 03:42:01;;;;;;;2.30;0.90;;;9.20;99.90;;;;;;4894282;29;20522;-65
2021/05/17 03:44:27;;;;;;;0.90;0.80;;;9.20;99.90;;;;;;4895043;29;20506;-65
2021/05/17 03:46:53;;;;;;;2.40;1.13;;;9.20;99.90;;;;;;4894997;29;20179;-65
2021/05/17 03:49:18;;;;;;;1.63;0.97;;;9.20;99.90;;;;;;4893778;29;20451;-66
2021/05/17 03:51:44;;;;;;;0.90;0.90;;;9.30;99.90;;;;;;4894970;29;20186;-66
2021/05/17 03:54:09;;;;;;;1.10;0.90;;;9.30;99.90;;;;;;4895007;29;20218;-63
2021/05/17 03:56:35;;;;;;;2.60;0.80;;;9.30;99.90;;;;;;4894356;29;20609;-66
2021/05/17 03:59:00;;;;;;;1.27;0.70;;;9.30;99.90;;;;;;4893807;29;20214;-66
2021/05/17 04:01:26;;;;;;;1.43;0.80;;;9.30;99.90;;;;;;4894181;29;20179;-65
2021/05/17 04:03:54;;;;;;;1.30;1.20;;;9.30;99.90;;;;;;4894556;29;20210;-65
2021/05/17 04:06:27;;;;;;;1.00;0.80;;;9.40;99.90;;;;;;4894907;29;21028;-65
2021/05/17 04:14:21;;;;;;;3.17;1.27;;;9.50;99.90;;;;;;4894578;29;20443;-65
2021/05/17 04:16:46;;;;;;;0.77;0.77;;;9.50;99.90;;;;;;4893731;29;20439;-65
2021/05/17 04:19:12;;;;;;;2.00;0.97;;;9.50;99.90;;;;;;4894316;29;20263;-65
2021/05/17 04:21:39;;;;;;;1.37;1.07;;;9.50;99.90;;;;;;4894401;29;20179;-64
2021/05/17 04:24:05;;;;;;;1.20;0.97;;;9.60;99.90;;;;;;4894258;29;20267;-65
2021/05/17 04:26:31;;;;;;;1.20;0.90;;;9.60;99.90;;;;;;4894583;29;20434;-65
2021/05/17 04:28:57;;;;;;;1.43;1.00;;;9.70;99.90;;;;;;4897230;29;20506;-65
2021/05/17 04:31:22;;;;;;;1.03;0.80;;;9.70;99.90;;;;;;4897582;29;20183;-64
2021/05/17 04:33:48;;;;;;;2.93;1.00;;;9.70;99.90;;;;;;4897721;29;20921;-66
2021/05/17 04:36:13;;;;;;;0.70;0.70;;;9.80;99.90;;;;;;4897763;29;20569;-65
2021/05/17 04:38:39;;;;;;;2.53;0.90;;;9.80;99.90;;;;;;4896929;29;20242;-65
2021/05/17 04:41:04;;;;;;;1.27;0.80;;;9.80;99.90;;;;;;4896778;29;20187;-65
2021/05/17 04:43:30;;;;;;;0.83;0.70;;;10.00;99.90;;;;;;4897709;29;20361;-66
2021/05/17 04:45:55;;;;;;;1.33;0.87;;;10.10;99.90;;;;;;4897134;29;20179;-65
2021/05/17 04:48:21;;;;;;;0.90;0.90;;;10.10;99.90;;;;;;4897735;29;20278;-66
2021/05/17 04:50:47;;;;;;;1.03;1.00;;;10.10;99.90;;;;;;4896264;29;20189;-63
2021/05/17 04:53:12;;;;;;;3.60;0.93;;;10.20;99.90;;;;;;4897542;29;20199;-66
2021/05/17 04:55:38;;;;;;;1.80;1.10;;;10.30;99.90;;;;;;4897242;29;20276;-65
2021/05/17 04:58:04;;;;;;;1.50;1.00;;;10.30;99.90;;;;;;4895398;29;20206;-65
2021/05/17 05:00:29;;;;;;;1.10;0.60;;;10.30;99.90;;;;;;4896704;29;20186;-65
2021/05/17 05:02:55;;;;;;;1.03;0.80;;;10.20;99.90;;;;;;4896394;29;20999;-65
2021/05/17 05:05:20;;;;;;;0.63;0.63;;;10.30;99.90;;;;;;4897396;29;20179;-66
2021/05/17 05:07:46;;;;;;;1.83;0.70;;;10.40;99.90;;;;;;4897397;29;20203;-64
2021/05/17 05:10:12;;;;;;;6.60;4.00;;;10.50;99.90;;;;;;4896938;29;20253;-65
2021/05/17 05:12:38;;;;;;;1.33;0.70;;;10.50;99.90;;;;;;4897394;29;20435;-66
2021/05/17 05:15:06;;;;;;;0.70;0.70;;;10.50;99.90;;;;;;4897479;29;20687;-66
2021/05/17 05:17:31;;;;;;;2.50;0.83;;;10.50;99.90;;;;;;4896912;29;21593;-65
2021/05/17 05:19:57;;;;;;;1.40;0.63;;;10.70;99.90;;;;;;4894159;29;20523;-65
2021/05/17 05:22:24;;;;;;;0.90;0.70;;;10.90;99.90;;;;;;4881970;29;20649;-66
2021/05/17 05:24:50;;;;;;;0.80;0.70;;;11.10;99.90;;;;;;4897363;29;20187;-65
2021/05/17 05:27:27;;;;;;;0.80;0.80;;;11.30;99.90;;;;;;4884171;29;20436;-66
2021/05/17 05:34:43;;;;;;;1.77;0.60;;;11.90;99.90;;;;;;4883083;29;20184;-66
2021/05/17 05:37:09;;;;;;;0.70;0.70;;;12.10;99.90;;;;;;4896451;29;20194;-66
2021/05/17 05:39:34;;;;;;;1.57;0.67;;;11.90;99.90;;;;;;4893652;29;20238;-65
2021/05/17 05:42:00;;;;;;;0.97;0.97;;;11.60;99.90;;;;;;4896945;29;20185;-66
2021/05/17 05:44:25;;;;;;;1.73;0.67;;;11.40;99.90;;;;;;4885004;29;20207;-64
2021/05/17 05:46:51;;;;;;;1.53;0.53;;;11.50;99.90;;;;;;4894048;29;20199;-64
2021/05/17 05:49:16;;;;;;;1.17;0.70;;;11.50;99.90;;;;;;4896247;29;20199;-65
2021/05/17 05:51:42;;;;;;;0.83;0.60;;;11.70;99.90;;;;;;4896575;29;20211;-66
2021/05/17 05:54:08;;;;;;;1.47;0.80;;;12.00;99.90;;;;;;4890005;29;20210;-66
2021/05/17 05:56:34;;;;;;;0.80;0.80;;;12.20;99.90;;;;;;4886510;29;20185;-65
2021/05/17 05:58:59;;;;;;;3.73;2.10;;;12.30;99.90;;;;;;4894291;29;20468;-66
2021/05/17 06:01:25;;;;;;;0.70;0.70;;;12.10;99.90;;;;;;4896071;29;20179;-65
2021/05/17 06:03:50;;;;;;;2.80;0.90;;;12.00;99.90;;;;;;4895797;29;20214;-65
2021/05/17 06:06:16;;;;;;;0.77;0.67;;;11.90;99.90;;;;;;4895877;29;20238;-65
2021/05/17 06:08:43;;;;;;;0.77;0.60;;;11.90;99.90;;;;;;4895107;29;20741;-65
2021/05/17 06:11:11;;;;;;;1.43;1.00;;;11.90;99.90;;;;;;4896704;29;20179;-66
2021/05/17 06:13:38;;;;;;;0.87;0.70;;;11.90;99.90;;;;;;4895034;29;20919;-64
2021/05/17 06:16:08;;;;;;;1.23;0.73;;;12.00;99.90;;;;;;4896237;29;20475;-66
2021/05/17 06:18:34;;;;;;;0.93;0.73;;;12.00;99.90;;;;;;4893910;29;20880;-65
2021/05/17 06:21:00;;;;;;;0.70;0.60;;;12.20;99.90;;;;;;4887510;29;20482;-66
2021/05/17 06:23:27;;;;;;;1.33;0.70;;;12.30;99.90;;;;;;4866981;29;20481;-66
2021/05/17 06:25:54;;;;;;;1.77;0.70;;;12.20;99.90;;;;;;4889081;29;20939;-65
2021/05/17 06:28:21;;;;;;;1.50;1.30;;;12.10;99.90;;;;;;4894916;29;20455;-65
2021/05/17 06:30:56;;;;;;;2.10;1.00;;;12.20;99.90;;;;;;4894453;29;20435;-65
2021/05/17 06:33:22;;;;;;;1.60;0.83;;;12.60;99.90;;;;;;4878006;29;20960;-66
2021/05/17 06:35:58;;;;;;;1.10;0.83;;;12.60;99.90;;;;;;4893966;29;20439;-66
2021/05/17 06:38:25;;;;;;;1.90;0.73;;;12.70;99.90;;;;;;4895619;29;20242;-66
2021/05/17 06:40:53;;;;;;;3.17;1.10;;;12.80;99.90;;;;;;4893733;29;20438;-68
2021/05/17 06:43:19;;;;;;;4.47;1.07;;;12.70;99.90;;;;;;4893475;29;20523;-70
2021/05/17 06:45:45;;;;;;;0.87;0.80;;;12.50;99.90;;;;;;4895311;29;20459;-67
2021/05/17 06:48:11;;;;;;;0.97;0.63;;;12.30;99.90;;;;;;4895986;29;20944;-67
2021/05/17 06:50:38;;;;;;;0.90;0.70;;;12.20;99.90;;;;;;4889865;29;20483;-67
2021/05/17 06:53:04;;;;;;;3.83;0.90;;;11.90;99.90;;;;;;4888798;29;20439;-67
2021/05/17 06:55:37;;;;;;;1.53;0.90;;;11.70;99.90;;;;;;4890347;29;21095;-66
2021/05/17 06:58:13;;;;;;;3.60;1.20;;;11.60;99.90;;;;;;4892998;29;20459;-66
2021/05/17 07:00:40;;;;;;;1.33;0.80;;;11.60;99.90;;;;;;4891967;29;20478;-67
2021/05/17 07:03:07;;;;;;;2.97;1.27;;;11.70;99.90;;;;;;4889318;29;20980;-67
2021/05/17 07:05:38;;;;;;;1.73;0.87;;;11.80;99.90;;;;;;4892434;29;20918;-67
2021/05/17 07:13:17;;;;;;;1.57;1.10;;;11.50;99.90;;;;;;4889996;29;20433;-66
2021/05/17 07:15:44;;;;;;;4.73;1.97;;;11.50;99.90;;;;;;4892628;29;21080;-67
2021/05/17 07:18:10;;;;;;;1.33;1.20;;;11.60;99.90;;;;;;4892560;29;20502;-67
2021/05/17 07:25:53;;;;;;;0.80;0.70;;;12.00;99.90;;;;;;4892986;29;21016;-67
2021/05/17 07:28:18;;;;;;;2.00;0.90;;;12.10;99.90;;;;;;4892101;29;20504;-67
2021/05/17 07:30:45;;;;;;;1.27;0.90;;;12.20;99.90;;;;;;4891567;29;20266;-67
2021/05/17 07:33:11;;;;;;;1.10;0.80;;;12.20;99.90;;;;;;4889136;29;20183;-68
2021/05/17 07:35:36;;;;;;;1.57;0.90;;;12.50;99.90;;;;;;4892538;29;20431;-67
2021/05/17 07:38:02;;;;;;;3.23;1.57;;;12.80;99.90;;;;;;4892597;29;20305;-67
2021/05/17 07:40:28;;;;;;;5.17;1.20;;;13.20;99.90;;;;;;4891675;29;20223;-67
2021/05/17 07:42:54;;;;;;;1.67;0.97;;;13.40;99.90;;;;;;4889177;29;20213;-67
2021/05/17 07:45:19;;;;;;;1.10;0.90;;;13.70;99.90;;;;;;4892625;29;20182;-67
2021/05/17 07:47:45;;;;;;;1.23;0.90;;;13.70;99.90;;;;;;4892141;29;20443;-67
2021/05/17 07:50:11;;;;;;;0.80;0.80;;;13.60;99.90;;;;;;4891877;29;20175;-67
2021/05/17 07:52:37;;;;;;;1.40;1.13;;;14.00;99.90;;;;;;4888823;29;20573;-66
2021/05/17 07:55:03;;;;;;;1.53;1.43;;;14.50;99.90;;;;;;4892051;29;20431;-67
2021/05/17 07:57:29;;;;;;;2.57;1.00;;;14.60;99.90;;;;;;4892123;29;20427;-67
2021/05/17 07:59:54;;;;;;;0.80;0.80;;;14.50;99.90;;;;;;4891460;29;20434;-67
2021/05/17 08:02:21;;;;;;;4.30;3.07;;;14.50;99.90;;;;;;4889927;29;20187;-68
2021/05/17 08:04:51;;;;;;;1.10;0.80;;;14.40;99.90;;;;;;4896187;29;20819;-67
2021/05/17 08:07:21;;;;;;;0.80;0.80;;;14.40;99.90;;;;;;4895770;29;20970;-67
2021/05/17 08:09:48;;;;;;;0.90;0.90;;;14.40;99.90;;;;;;4895200;29;20510;-67
2021/05/17 08:12:14;;;;;;;1.00;0.90;;;14.60;99.90;;;;;;4892524;29;20455;-66
2021/05/17 08:14:40;;;;;;;1.87;0.90;;;14.60;99.90;;;;;;4895524;29;20433;-66
2021/05/17 08:17:06;;;;;;;0.77;0.77;;;14.60;99.90;;;;;;4895806;29;20423;-67
2021/05/17 08:19:35;;;;;;;1.73;0.80;;;14.90;99.90;;;;;;4895152;29;20467;-66
2021/05/17 08:22:01;;;;;;;1.50;0.97;;;15.60;99.90;;;;;;4891805;29;20940;-68
2021/05/17 08:24:27;;;;;;;1.00;0.90;;;15.90;99.90;;;;;;4895601;29;20462;-67
2021/05/17 08:26:53;;;;;;;0.80;0.80;;;16.10;99.90;;;;;;4895671;29;20419;-66
2021/05/17 08:29:19;;;;;;;1.20;1.10;;;15.60;99.90;;;;;;4894264;29;20451;-67
2021/05/17 08:31:48;;;;;;;7.93;1.70;;;15.30;99.90;;;;;;4893244;29;20575;-67
2021/05/17 08:34:13;;;;;;;0.90;0.77;;;15.20;99.90;;;;;;4895525;29;20522;-66
2021/05/17 08:36:39;;;;;;;0.93;0.90;;;15.20;99.90;;;;;;4895335;29;20455;-66
2021/05/17 08:39:06;;;;;;;3.30;1.20;;;15.40;99.90;;;;;;4894584;29;20210;-66
2021/05/17 08:41:36;;;;;;;1.07;0.73;;;15.90;99.90;;;;;;4892241;29;20557;-66
2021/05/17 08:44:06;;;;;;;2.17;1.20;;;16.00;99.90;;;;;;4895375;29;20463;-67
2021/05/17 08:46:31;;;;;;;1.87;1.40;;;15.70;99.90;;;;;;4895241;29;20498;-66
2021/05/17 08:48:57;;;;;;;1.90;0.90;;;15.90;99.90;;;;;;4894320;29;20956;-66
2021/05/17 08:51:28;;;;;;;3.60;1.40;;;15.80;99.90;;;;;;4891737;29;20191;-66
2021/05/17 08:53:58;;;;;;;3.17;2.10;;;15.50;99.90;;;;;;4895181;29;20194;-66
2021/05/17 08:56:24;;;;;;;2.80;1.50;;;15.00;99.90;;;;;;4894850;29;20927;-66
2021/05/17 08:58:55;;;;;;;1.00;0.80;;;14.60;99.90;;;;;;4894433;29;20534;-66
2021/05/17 09:01:20;;;;;;;3.97;2.07;;;14.20;99.90;;;;;;4892210;29;20439;-66
2021/05/17 09:03:54;;;;;;;2.10;1.03;;;14.20;99.90;;;;;;4893911;29;20466;-66
2021/05/17 09:06:23;;;;;;;2.83;0.90;;;14.40;99.90;;;;;;4894953;29;20716;-66
2021/05/17 09:08:48;;;;;;;1.00;0.83;;;15.00;99.90;;;;;;4894049;29;20451;-66
2021/05/17 09:11:30;;;;;;;1.40;1.13;;;15.60;99.90;;;;;;4891707;29;20426;-66
2021/05/17 09:14:12;;;;;;;1.40;0.70;;;15.90;99.90;;;;;;4893562;29;20194;-66
2021/05/17 09:17:08;;;;;;;1.33;0.80;;;15.90;99.90;;;;;;4894256;29;20997;-66
2021/05/17 09:19:35;;;;;;;3.67;1.03;;;15.60;99.90;;;;;;4893439;29;20466;-66
2021/05/17 09:22:15;;;;;;;2.93;1.10;;;15.70;99.90;;;;;;4891579;29;20431;-65
2021/05/17 09:24:56;;;;;;;0.93;0.93;;;16.10;99.90;;;;;;4894157;29;20495;-67
2021/05/17 09:27:30;;;;;;;1.07;1.00;;;16.10;99.90;;;;;;4894461;29;20930;-67
2021/05/17 09:29:58;;;;;;;1.93;1.10;;;16.40;99.90;;;;;;4893598;29;20431;-66
2021/05/17 09:32:26;;;;;;;1.90;0.70;;;16.90;99.90;;;;;;4891015;29;20439;-67
2021/05/17 09:35:08;;;;;;;1.03;0.90;;;17.20;99.90;;;;;;4894222;29;20433;-66
2021/05/17 09:37:48;;;;;;;1.20;0.90;;;16.70;99.90;;;;;;4894007;29;20566;-66
2021/05/17 09:40:28;;;;;;;2.03;0.97;;;16.90;99.90;;;;;;4893852;29;20955;-66
2021/05/17 09:43:04;;;;;;;1.17;1.10;;;16.50;99.90;;;;;;4891116;29;20466;-66
2021/05/17 09:45:31;;;;;;;4.13;1.10;;;16.30;99.90;;;;;;4893981;29;20419;-66
2021/05/17 09:47:57;;;;;;;1.93;1.70;;;16.00;99.90;;;;;;4894271;29;20524;-66
2021/05/17 09:50:22;;;;;;;2.03;1.10;;;15.90;99.90;;;;;;4893812;29;20468;-66
2021/05/17 09:52:48;;;;;;;3.23;0.90;;;16.00;99.90;;;;;;4890610;29;20199;-66
2021/05/17 09:55:13;;;;;;;1.53;1.20;;;15.80;99.90;;;;;;4894093;29;20187;-66
2021/05/17 09:57:44;;;;;;;5.20;4.80;;;16.10;99.90;;;;;;4893955;29;20656;-66
2021/05/17 10:00:16;;;;;;;2.10;1.80;;;16.40;99.90;;;;;;4893499;29;20226;-66
2021/05/17 10:02:44;;;;;;;1.20;1.10;;;16.70;99.90;;;;;;4890525;29;20467;-65
2021/05/17 10:05:25;;;;;;;1.13;0.77;;;16.60;99.90;;;;;;4893673;29;20419;-66
2021/05/17 10:07:57;;;;;;;1.53;1.00;;;16.50;99.90;;;;;;4893758;29;20450;-66
2021/05/17 10:10:24;;;;;;;1.77;0.80;;;16.00;99.90;;;;;;4893470;29;20419;-67
2021/05/17 10:12:53;;;;;;;2.30;1.10;;;15.70;99.90;;;;;;4889572;29;20872;-67
2021/05/17 10:15:20;;;;;;;3.23;1.43;;;15.50;99.90;;;;;;4893438;29;20554;-67
2021/05/17 10:17:46;;;;;;;2.77;1.30;;;15.80;99.90;;;;;;4893310;29;20473;-67
2021/05/17 10:20:17;;;;;;;0.87;0.87;;;16.00;99.90;;;;;;4892514;29;20428;-66
2021/05/17 10:22:43;;;;;;;0.90;0.90;;;16.00;99.90;;;;;;4890177;29;20551;-66
2021/05/17 10:25:11;;;;;;;1.97;1.87;;;15.90;99.90;;;;;;4892715;29;20470;-66
2021/05/17 10:27:43;;;;;;;2.33;1.33;;;15.70;99.90;;;;;;4893169;29;20454;-66
2021/05/17 10:30:10;;;;;;;4.10;1.37;;;15.10;99.90;;;;;;4892830;29;21245;-66
2021/05/17 10:32:46;;;;;;;5.47;1.60;;;14.80;99.90;;;;;;4905747;29;20439;-66
2021/05/17 10:35:18;;;;;;;2.37;1.33;;;14.10;99.90;;;;;;4893227;29;20789;-66
2021/05/17 10:37:45;;;;;;;3.33;1.50;;;13.70;99.90;;;;;;4893074;29;20466;-65
2021/05/17 10:40:30;;;;;;;1.07;0.90;;;13.40;99.90;;;;;;4892399;29;20506;-66
2021/05/17 10:43:05;;;;;;;1.77;1.40;;;13.20;99.90;;;;;;4890247;29;20554;-66
2021/05/17 10:48:17;;;;;;;1.10;1.00;;;13.50;99.90;;;;;;4893133;29;20439;-65
2021/05/17 10:50:47;;;;;;;1.33;1.00;;;13.90;99.90;;;;;;4892669;29;20427;-65
2021/05/17 10:53:45;;;;;;;1.90;1.17;;;14.80;99.90;;;;;;4889628;29;20438;-65
2021/05/17 10:56:43;;;;;;;1.00;0.90;;;16.10;99.90;;;;;;4893212;29;20462;-66
2021/05/17 11:01:58;;;;;;;1.30;1.20;;;18.40;99.90;;;;;;4889819;29;20449;-66
2021/05/17 11:04:30;;;;;;;1.87;1.30;;;17.90;99.90;;;;;;4892945;29;20498;-66
2021/05/17 11:07:14;;;;;;;1.47;1.37;;;17.40;99.90;;;;;;4892434;29;20446;-66
2021/05/17 11:09:49;;;;;;;4.00;1.40;;;18.00;99.90;;;;;;4892256;29;20451;-66
2021/05/17 11:12:27;;;;;;;1.13;1.03;;;18.70;99.90;;;;;;4890037;29;20431;-66
2021/05/17 11:15:12;;;;;;;2.87;1.30;;;18.40;99.90;;;;;;4892533;29;20418;-66
2021/05/17 11:17:59;;;;;;;4.27;1.17;;;17.50;99.90;;;;;;4892667;29;20471;-66
2021/05/17 11:23:20;;;;;;;1.87;1.77;;;16.90;99.90;;;;;;4889122;29;20474;-66
2021/05/17 11:26:03;;;;;;;2.50;1.80;;;16.30;99.90;;;;;;4892549;29;20968;-66
2021/05/17 11:28:34;;;;;;;2.27;1.70;;;15.90;99.90;;;;;;4892185;29;20446;-68
2021/05/17 11:33:51;;;;;;;5.43;2.60;;;15.30;99.90;;;;;;4892292;29;20427;-67
2021/05/17 11:36:17;;;;;;;1.30;1.20;;;15.10;99.90;;;;;;4892483;29;20438;-66
2021/05/17 11:39:18;;;;;;;1.70;1.27;;;15.00;99.90;;;;;;4895764;29;20458;-66
2021/05/17 11:41:59;;;;;;;2.70;1.10;;;14.80;99.90;;;;;;4893613;29;20218;-66
2021/05/17 11:44:57;;;;;;;1.17;1.07;;;14.50;99.90;;;;;;4895672;29;20458;-66
2021/05/17 11:47:24;;;;;;;1.30;1.13;;;14.50;99.90;;;;;;4894964;29;20431;-66
2021/05/17 11:49:51;;;;;;;2.60;0.90;;;14.40;99.90;;;;;;4895786;29;20423;-66
2021/05/17 11:52:19;;;;;;;1.43;0.87;;;14.60;99.90;;;;;;4892897;29;20438;-66
2021/05/17 11:54:49;;;;;;;1.37;1.00;;;15.40;99.90;;;;;;4896401;29;20426;-66
2021/05/17 11:57:17;;;;;;;1.20;0.90;;;15.90;99.90;;;;;;4896259;29;20787;-66
2021/05/17 11:59:42;;;;;;;2.07;1.10;;;17.10;99.90;;;;;;4895558;29;20431;-67
2021/05/17 12:02:11;;;;;;;2.07;1.20;;;17.10;99.90;;;;;;4892688;29;20437;-67
2021/05/17 12:04:41;;;;;;;0.80;0.80;;;17.50;99.90;;;;;;4895713;29;20243;-67
2021/05/17 12:07:16;;;;;;;1.43;0.80;;;18.60;99.90;;;;;;4895876;29;20450;-68
2021/05/17 12:09:45;;;;;;;4.43;2.47;;;19.60;99.90;;;;;;4894956;29;20434;-67
2021/05/17 12:12:12;;;;;;;5.23;1.10;;;19.30;99.70;;;;;;4892589;29;20531;-67
2021/05/17 12:14:41;;;;;;;0.70;0.70;;;18.60;99.10;;;;;;4895835;29;20554;-67
2021/05/17 12:17:14;;;;;;;1.60;0.93;;;18.20;99.90;;;;;;4895605;29;20832;-66
2021/05/17 12:19:42;;;;;;;0.80;0.70;;;20.20;97.20;;;;;;4894961;29;20463;-66
2021/05/17 12:22:17;;;;;;;1.03;0.93;;;21.60;93.70;;;;;;4892862;29;20447;-67
2021/05/17 12:24:43;;;;;;;0.93;0.93;;;23.80;89.90;;;;;;4895148;29;20543;-67
2021/05/17 12:27:12;;;;;;;1.57;1.03;;;26.50;71.90;;;;;;4895646;29;20461;-67
2021/05/17 12:30:16;;;;;;;0.70;0.70;;;25.80;64.90;;;;;;4894764;29;20661;-67
2021/05/17 12:32:42;;;;;;;1.20;0.60;;;25.00;63.30;;;;;;4889212;29;20446;-66
2021/05/17 12:35:21;;;;;;;0.70;0.70;;;24.60;62.30;;;;;;4895480;29;20422;-66
2021/05/17 12:37:51;;;;;;;0.70;0.67;;;22.90;66.40;;;;;;4895217;29;20875;-67
2021/05/17 12:40:20;;;;;;;1.97;0.70;;;21.10;71.00;;;;;;4893634;29;20434;-67
2021/05/17 12:43:21;;;;;;;0.93;0.63;;;21.10;73.40;;;;;;4895287;29;20459;-67
2021/05/17 12:45:53;;;;;;;0.80;0.77;;;22.70;70.00;;;;;;4890914;29;20996;-67
2021/05/17 12:48:32;;;;;;;3.13;0.60;;;22.60;68.90;;;;;;4898015;29;20474;-67
2021/05/17 12:51:11;;;;;;;1.53;0.80;;;22.60;69.70;;;;;;4895848;29;20423;-67
2021/05/17 12:53:37;;;;;;;1.13;0.80;;;23.90;67.70;;;;;;4898043;29;21082;-67
2021/05/17 12:56:03;;;;;;;1.10;0.80;;;24.40;63.20;;;;;;4897855;29;20427;-67
2021/05/17 12:58:41;;;;;;;0.80;0.70;;;23.00;65.80;;;;;;4897492;29;20241;-67
2021/05/17 13:01:06;;;;;;;0.80;0.50;;;22.30;66.90;;;;;;4896195;29;20175;-67
2021/05/17 13:03:35;;;;;;;0.70;0.60;;;22.70;67.10;;;;;;4897445;29;20463;-67
2021/05/17 13:06:22;;;;;;;1.30;0.60;;;22.90;66.10;;;;;;4898198;29;20171;-67
2021/05/17 13:08:54;;;;;;;1.50;0.73;;;23.80;64.90;;;;;;4896753;29;20535;-67
2021/05/17 13:11:40;;;;;;;0.90;0.70;;;25.00;63.00;;;;;;4895779;29;20442;-67
2021/05/17 13:14:21;;;;;;;2.40;0.70;;;25.30;59.90;;;;;;4897509;29;20510;-67
2021/05/17 13:16:49;;;;;;;0.90;0.70;;;25.40;59.00;;;;;;4897940;29;20438;-67
2021/05/17 13:30:55;;;;;;;1.00;0.77;;;21.60;65.60;;;;;;4891676;29;20529;-67
2021/05/17 13:33:28;;;;;;;1.00;1.00;;;20.70;69.30;;;;;;4893011;29;20426;-67
2021/05/17 13:36:08;;;;;;;1.23;0.70;;;19.80;71.70;;;;;;4894322;29;20431;-67
2021/05/17 13:38:36;;;;;;;2.33;0.63;;;18.90;75.10;;;;;;4893739;29;20515;-67
2021/05/17 13:41:03;;;;;;;1.37;1.00;;;18.50;79.70;;;;;;4891745;29;20465;-66
2021/05/17 13:43:29;;;;;;;7.30;2.60;;;18.00;85.80;;;;;;4892550;29;20471;-67